Time;durP1;ratioP1;P1;durP2;ratioP2;P2;SDS_P1;SDS_P2;PMS_P1;PMS_P2;Temp;Humidity;BMP_temperature;BMP_pressure;BME280_temperature;BME280_humidity;BME280_pressure;Samples;Min_cycle;Max_cycle;Signal;HPM_P1;HPM_P2
2021/11/01 00:01:47;;;;;;;28.02;4.15;;;11.20;99.90;;;;;;4908219;28;20106;-84
2021/11/01 00:04:13;;;;;;;12.70;2.75;;;11.10;99.90;;;;;;4932697;29;20035;-84
2021/11/01 00:06:38;;;;;;;8.68;2.42;;;11.10;99.90;;;;;;4896788;29;20048;-84
2021/11/01 00:09:04;;;;;;;14.20;3.58;;;11.00;99.90;;;;;;4896533;29;20489;-84
2021/11/01 00:11:30;;;;;;;13.60;2.13;;;11.00;99.90;;;;;;4896618;29;20035;-84
2021/11/01 00:13:55;;;;;;;4.55;1.27;;;10.90;99.90;;;;;;4915041;29;20481;-84
2021/11/01 00:16:21;;;;;;;9.13;1.75;;;10.90;99.90;;;;;;4895358;29;20515;-84
2021/11/01 00:18:47;;;;;;;8.63;2.95;;;10.90;99.90;;;;;;4943056;28;20024;-84
2021/11/01 00:21:13;;;;;;;9.88;2.00;;;10.90;99.90;;;;;;4902484;29;20039;-84
2021/11/01 00:23:38;;;;;;;7.05;1.80;;;10.90;99.90;;;;;;4943003;28;20039;-84
2021/11/01 00:26:04;;;;;;;5.75;1.30;;;10.90;99.90;;;;;;4912211;29;21603;-84
2021/11/01 00:28:29;;;;;;;12.55;1.88;;;10.90;99.90;;;;;;4914112;29;20042;-84
2021/11/01 00:30:58;;;;;;;11.70;1.60;;;10.90;99.90;;;;;;4930065;29;20469;-84
2021/11/01 00:33:24;;;;;;;12.32;2.10;;;10.90;99.90;;;;;;4928778;29;20055;-84
2021/11/01 00:35:50;;;;;;;9.70;1.70;;;10.90;99.90;;;;;;4914626;29;20043;-84
2021/11/01 00:38:16;;;;;;;3.70;0.82;;;10.80;99.90;;;;;;4902856;29;20039;-84
2021/11/01 00:40:42;;;;;;;9.73;1.60;;;10.80;99.90;;;;;;4911617;29;20487;-84
2021/11/01 00:43:08;;;;;;;6.35;1.75;;;10.80;99.90;;;;;;4912429;29;20028;-84
2021/11/01 00:45:34;;;;;;;10.10;2.20;;;10.80;99.90;;;;;;4913019;29;20032;-83
2021/11/01 00:47:59;;;;;;;5.03;1.30;;;10.70;99.90;;;;;;4929040;29;20055;-84
2021/11/01 00:50:25;;;;;;;10.73;1.77;;;10.70;99.90;;;;;;4912658;29;20058;-84
2021/11/01 00:52:51;;;;;;;12.40;1.52;;;10.70;99.90;;;;;;4936368;29;20119;-84
2021/11/01 00:55:34;;;;;;;7.80;1.70;;;10.70;99.90;;;;;;4913912;29;20481;-84
2021/11/01 00:57:59;;;;;;;10.65;1.60;;;10.60;99.90;;;;;;4932915;28;20065;-84
2021/11/01 01:00:26;;;;;;;15.73;1.80;;;10.60;99.90;;;;;;4929132;29;20477;-84
2021/11/01 01:02:52;;;;;;;10.27;1.90;;;10.50;99.90;;;;;;4930278;29;20028;-84
2021/11/01 01:05:18;;;;;;;6.13;1.50;;;10.50;99.90;;;;;;4914083;29;20031;-84
2021/11/01 01:07:43;;;;;;;10.50;2.13;;;10.50;99.90;;;;;;4935508;28;20446;-83
2021/11/01 01:10:09;;;;;;;4.95;0.93;;;10.50;99.90;;;;;;4927025;28;20032;-83
2021/11/01 01:12:40;;;;;;;7.60;1.65;;;10.50;99.90;;;;;;4929421;29;20040;-84
2021/11/01 01:15:06;;;;;;;12.90;2.40;;;10.60;99.90;;;;;;4901624;29;20036;-84
2021/11/01 01:17:37;;;;;;;7.28;1.42;;;10.50;99.90;;;;;;4923743;29;20035;-84
2021/11/01 01:20:07;;;;;;;12.23;1.52;;;10.50;99.90;;;;;;4927285;28;20405;-84
2021/11/01 01:22:33;;;;;;;6.05;1.35;;;10.40;99.90;;;;;;4919881;29;20027;-84
2021/11/01 01:25:03;;;;;;;5.35;1.27;;;10.40;99.90;;;;;;4916379;29;20038;-84
2021/11/01 01:27:29;;;;;;;12.43;2.10;;;10.40;99.90;;;;;;4913458;29;20020;-84
2021/11/01 01:29:55;;;;;;;5.55;1.42;;;10.40;99.90;;;;;;4913453;29;20024;-84
2021/11/01 01:32:21;;;;;;;9.93;1.45;;;10.40;99.90;;;;;;4898868;28;20107;-84
2021/11/01 01:34:46;;;;;;;11.07;1.88;;;10.40;99.90;;;;;;4929264;29;20024;-84
2021/11/01 01:37:12;;;;;;;12.52;1.80;;;10.30;99.90;;;;;;4912712;29;20032;-84
2021/11/01 01:39:37;;;;;;;11.30;2.38;;;10.20;99.90;;;;;;4941032;29;20072;-84
2021/11/01 01:42:03;;;;;;;10.93;2.10;;;10.10;99.90;;;;;;4932223;29;20039;-84
2021/11/01 01:44:29;;;;;;;8.93;1.45;;;10.10;99.90;;;;;;4911097;29;20127;-84
2021/11/01 01:46:54;;;;;;;9.65;1.75;;;10.10;99.90;;;;;;4917005;29;20058;-84
2021/11/01 01:49:21;;;;;;;6.57;1.48;;;10.10;99.90;;;;;;4942489;28;20039;-84
2021/11/01 01:51:47;;;;;;;6.20;1.00;;;10.20;99.90;;;;;;4929996;29;20052;-84
2021/11/01 01:54:15;;;;;;;4.85;1.08;;;10.20;99.90;;;;;;4912406;29;20196;-84
2021/11/01 01:56:41;;;;;;;12.15;1.80;;;10.10;99.90;;;;;;4928324;29;20040;-84
2021/11/01 01:59:11;;;;;;;4.07;0.63;;;10.10;99.90;;;;;;4910895;29;20042;-83
2021/11/01 02:01:37;;;;;;;5.55;1.17;;;10.20;99.90;;;;;;4926562;28;20127;-84
2021/11/01 02:04:03;;;;;;;8.15;1.10;;;10.20;99.90;;;;;;4939246;28;20027;-84
2021/11/01 02:06:53;;;;;;;8.95;1.10;;;10.10;99.90;;;;;;4930169;29;20047;-84
2021/11/01 02:09:20;;;;;;;10.70;1.40;;;10.10;99.90;;;;;;4939714;28;20039;-84
2021/11/01 02:11:51;;;;;;;8.75;1.08;;;10.10;99.90;;;;;;4926565;28;20055;-84
2021/11/01 02:14:19;;;;;;;9.55;1.20;;;10.10;99.90;;;;;;4925880;29;20028;-83
2021/11/01 02:16:46;;;;;;;6.45;1.42;;;9.90;99.90;;;;;;4925837;29;20528;-84
2021/11/01 02:19:14;;;;;;;9.13;1.70;;;9.90;99.90;;;;;;4914897;29;20032;-83
2021/11/01 02:21:53;;;;;;;4.95;1.27;;;9.90;99.90;;;;;;4939907;28;21103;-83
2021/11/01 02:24:43;;;;;;;17.17;1.58;;;9.90;99.90;;;;;;4909648;29;20111;-83
2021/11/01 02:27:11;;;;;;;7.50;1.35;;;9.90;99.90;;;;;;4933580;28;20047;-83
2021/11/01 02:29:37;;;;;;;5.95;1.52;;;9.90;99.90;;;;;;4922496;29;20038;-83
2021/11/01 02:32:04;;;;;;;7.60;1.17;;;9.90;99.90;;;;;;4927493;29;20028;-83
2021/11/01 02:34:29;;;;;;;7.30;1.33;;;9.90;99.90;;;;;;4916551;29;20051;-83
2021/11/01 02:36:55;;;;;;;11.75;3.40;;;9.90;99.90;;;;;;4929263;29;20082;-84
2021/11/01 02:39:20;;;;;;;11.88;1.77;;;9.90;99.90;;;;;;4908083;29;20039;-83
2021/11/01 02:41:46;;;;;;;7.65;1.40;;;9.80;99.90;;;;;;4929299;29;20061;-83
2021/11/01 02:44:11;;;;;;;8.63;1.85;;;9.80;99.90;;;;;;4916907;29;20055;-83
2021/11/01 02:46:38;;;;;;;8.07;1.33;;;9.80;99.90;;;;;;4942487;28;20039;-84
2021/11/01 02:49:04;;;;;;;7.55;2.55;;;9.60;99.90;;;;;;4927796;29;20035;-84
2021/11/01 02:51:29;;;;;;;10.25;1.40;;;9.60;99.90;;;;;;4938295;29;20035;-84
2021/11/01 02:53:56;;;;;;;9.10;1.83;;;9.70;99.90;;;;;;4927280;29;20385;-83
2021/11/01 02:56:22;;;;;;;6.47;1.10;;;9.70;99.90;;;;;;4940160;29;20377;-83
2021/11/01 02:58:47;;;;;;;7.60;1.50;;;9.70;99.90;;;;;;4941874;29;20096;-83
2021/11/01 03:01:14;;;;;;;6.53;1.48;;;9.60;99.90;;;;;;4910181;29;20044;-83
2021/11/01 03:03:41;;;;;;;13.18;1.52;;;9.70;99.90;;;;;;4929741;29;20518;-83
2021/11/01 03:06:06;;;;;;;9.07;1.55;;;9.60;99.90;;;;;;4933293;28;20403;-84
2021/11/01 03:08:33;;;;;;;7.28;1.13;;;9.60;99.90;;;;;;4944338;29;20027;-84
2021/11/01 03:10:59;;;;;;;14.52;1.27;;;9.70;99.90;;;;;;4931625;28;20039;-84
2021/11/01 03:13:25;;;;;;;4.93;1.70;;;9.70;99.90;;;;;;4914135;29;20043;-83
2021/11/01 03:15:51;;;;;;;13.07;1.77;;;9.70;99.90;;;;;;4918083;29;20090;-83
2021/11/01 03:18:17;;;;;;;12.75;1.38;;;9.70;99.90;;;;;;4914679;29;20039;-83
2021/11/01 03:20:44;;;;;;;5.72;1.08;;;9.60;99.90;;;;;;4929628;29;20031;-83
2021/11/01 03:23:33;;;;;;;5.53;0.80;;;9.60;99.90;;;;;;4946390;28;20043;-83
2021/11/01 03:26:01;;;;;;;10.00;2.92;;;9.60;99.90;;;;;;4930952;28;20035;-83
2021/11/01 03:28:27;;;;;;;7.50;1.27;;;9.50;99.90;;;;;;4917341;29;20412;-83
2021/11/01 03:30:55;;;;;;;6.32;0.95;;;9.50;99.90;;;;;;4930720;29;20031;-83
2021/11/01 03:33:24;;;;;;;14.25;2.08;;;9.50;99.90;;;;;;4915376;29;20035;-82
2021/11/01 03:35:51;;;;;;;5.82;1.20;;;9.40;99.90;;;;;;4928438;29;20086;-82
2021/11/01 03:38:16;;;;;;;5.43;1.00;;;9.40;99.90;;;;;;4900810;29;20435;-82
2021/11/01 03:40:46;;;;;;;5.85;1.35;;;9.40;99.90;;;;;;4916967;29;20043;-82
2021/11/01 03:43:16;;;;;;;5.75;1.60;;;9.60;99.90;;;;;;4915204;29;20031;-82
2021/11/01 03:45:42;;;;;;;5.88;1.20;;;9.40;99.90;;;;;;4926964;29;20032;-81
2021/11/01 03:48:09;;;;;;;3.28;0.80;;;9.40;99.90;;;;;;4916367;28;20518;-81
2021/11/01 03:50:45;;;;;;;8.02;1.50;;;9.40;99.90;;;;;;4916896;29;20039;-81
2021/11/01 03:53:10;;;;;;;9.65;2.65;;;9.40;99.90;;;;;;4943443;28;20031;-82
2021/11/01 03:55:36;;;;;;;5.38;1.23;;;9.50;99.90;;;;;;4906449;29;20050;-81
2021/11/01 03:58:01;;;;;;;13.98;1.80;;;9.40;99.90;;;;;;4920485;28;20032;-82
2021/11/01 04:00:30;;;;;;;5.20;1.05;;;9.40;99.90;;;;;;4916124;29;20032;-81
2021/11/01 04:02:56;;;;;;;3.20;1.13;;;9.40;99.90;;;;;;4922223;28;20043;-81
2021/11/01 04:05:21;;;;;;;3.08;0.98;;;9.40;99.90;;;;;;4922329;28;20419;-81
2021/11/01 04:07:47;;;;;;;4.47;1.25;;;9.40;99.90;;;;;;4919309;28;20046;-81
2021/11/01 04:10:14;;;;;;;6.68;1.10;;;9.30;99.90;;;;;;4918520;29;20039;-81
2021/11/01 04:12:42;;;;;;;5.18;1.00;;;9.40;99.90;;;;;;4920069;29;20555;-81
2021/11/01 04:15:23;;;;;;;10.93;0.82;;;9.40;99.90;;;;;;4918930;28;20031;-82
2021/11/01 04:17:58;;;;;;;6.78;1.42;;;9.50;99.90;;;;;;4937361;28;20020;-81
2021/11/01 04:20:30;;;;;;;;;;;9.40;99.90;;;;;;4920145;29;20035;-81
2021/11/01 04:23:09;;;;;;;4.03;1.15;;;9.40;99.90;;;;;;4937954;28;19921;-81
2021/11/01 04:25:34;;;;;;;4.22;1.52;;;9.40;99.90;;;;;;4916307;29;20032;-81
2021/11/01 04:28:01;;;;;;;8.45;1.80;;;9.50;99.90;;;;;;4906663;28;20573;-81
2021/11/01 04:30:31;;;;;;;3.22;0.98;;;9.50;99.90;;;;;;4917981;29;20078;-81
2021/11/01 04:33:02;;;;;;;3.08;1.05;;;9.50;99.90;;;;;;4922264;29;20028;-81
2021/11/01 04:35:33;;;;;;;5.80;1.15;;;9.50;99.90;;;;;;4920065;29;20035;-81
2021/11/01 04:38:05;;;;;;;4.38;1.30;;;9.50;99.90;;;;;;4932677;28;20440;-81
2021/11/01 04:54:20;;;;;;;2.15;0.95;;;9.40;99.90;;;;;;4922619;28;20058;-82
2021/11/01 04:56:46;;;;;;;4.45;1.23;;;9.40;99.90;;;;;;4933191;29;20554;-81
2021/11/01 04:59:11;;;;;;;15.82;2.33;;;9.40;99.90;;;;;;4920768;28;20030;-81
2021/11/01 05:01:40;;;;;;;6.43;1.88;;;9.40;99.90;;;;;;4932488;29;20028;-81
2021/11/01 05:04:12;;;;;;;8.48;1.10;;;9.40;99.90;;;;;;4931901;29;20058;-82
2021/11/01 05:06:43;;;;;;;5.78;1.35;;;9.50;99.90;;;;;;4921808;29;20519;-81
2021/11/01 05:09:16;;;;;;;5.75;1.38;;;9.40;99.90;;;;;;4918224;28;20495;-81
2021/11/01 05:14:17;;;;;;;5.15;1.10;;;9.40;99.90;;;;;;4935125;28;20082;-81
2021/11/01 05:19:32;;;;;;;5.57;1.40;;;9.40;99.90;;;;;;4918648;28;20127;-82
2021/11/01 05:24:57;;;;;;;9.40;1.20;;;9.50;99.90;;;;;;4911368;29;20020;-82
2021/11/01 05:29:48;;;;;;;11.43;1.58;;;9.20;99.90;;;;;;4932179;29;20024;-82
2021/11/01 05:32:17;;;;;;;6.03;1.17;;;9.20;99.90;;;;;;4914870;29;20077;-82
2021/11/01 05:34:43;;;;;;;9.00;1.38;;;9.30;99.90;;;;;;4918727;29;20066;-82
2021/11/01 05:37:09;;;;;;;1.55;0.70;;;9.10;99.90;;;;;;4918577;28;20522;-83
2021/11/01 05:39:35;;;;;;;6.43;1.40;;;9.10;99.90;;;;;;4931316;29;20074;-82
2021/11/01 05:42:00;;;;;;;5.82;1.55;;;9.20;99.90;;;;;;4952287;28;20027;-82
2021/11/01 05:44:26;;;;;;;8.35;1.90;;;9.20;99.90;;;;;;4922756;29;20035;-82
2021/11/01 05:46:53;;;;;;;18.05;5.38;;;9.20;99.90;;;;;;4931374;29;20031;-82
2021/11/01 05:49:21;;;;;;;6.30;1.60;;;9.10;99.90;;;;;;4905025;28;20536;-82
2021/11/01 05:51:47;;;;;;;8.30;1.55;;;9.10;99.90;;;;;;4920028;28;20035;-82
2021/11/01 05:54:16;;;;;;;9.27;2.35;;;9.10;99.90;;;;;;4916236;29;20048;-83
2021/11/01 05:57:04;;;;;;;7.00;1.42;;;9.00;99.90;;;;;;4942903;28;20153;-83
2021/11/01 06:00:00;;;;;;;8.35;1.60;;;9.10;99.90;;;;;;4933879;28;20043;-82
2021/11/01 06:02:48;;;;;;;7.57;1.57;;;9.10;99.90;;;;;;4934992;29;20035;-83
2021/11/01 06:05:26;;;;;;;2.30;0.80;;;9.10;99.90;;;;;;4917114;28;20266;-82
2021/11/01 06:08:22;;;;;;;5.10;0.98;;;9.00;99.90;;;;;;4915992;28;20422;-83
2021/11/01 06:13:30;;;;;;;5.18;0.73;;;8.90;99.90;;;;;;4932256;29;20034;-83
2021/11/01 06:15:57;;;;;;;8.75;1.52;;;8.90;99.90;;;;;;4927949;28;20082;-84
2021/11/01 06:18:30;;;;;;;7.20;1.60;;;8.90;99.90;;;;;;4904647;29;20391;-83
2021/11/01 06:20:56;;;;;;;8.80;1.75;;;8.90;99.90;;;;;;4915450;28;20027;-82
2021/11/01 06:23:22;;;;;;;2.80;1.00;;;8.90;99.90;;;;;;4904119;29;20042;-83
2021/11/01 06:25:51;;;;;;;6.35;0.70;;;9.00;99.90;;;;;;4914942;28;20130;-83
2021/11/01 06:28:17;;;;;;;5.20;0.82;;;9.00;99.90;;;;;;4901042;29;20099;-82
2021/11/01 06:30:51;;;;;;;9.27;1.52;;;9.00;99.90;;;;;;4929781;29;20027;-82
2021/11/01 06:41:41;;;;;;;7.82;1.25;;;9.00;99.90;;;;;;4921687;28;20404;-83
2021/11/01 07:17:02;;;;;;;11.32;1.73;;;9.00;99.90;;;;;;4870466;29;20045;-82
